Time;durP1;ratioP1;P1;durP2;ratioP2;P2;SDS_P1;SDS_P2;PMS_P1;PMS_P2;Temp;Humidity;BMP_temperature;BMP_pressure;BME280_temperature;BME280_humidity;BME280_pressure;Samples;Min_cycle;Max_cycle;Signal;HPM_P1;HPM_P2
2023/07/22 00:01:57;;;;;;;8.45;5.75;;;18.40;49.90;;;;;;4945930;28;20066;-62
2023/07/22 00:04:24;;;;;;;9.98;5.82;;;18.40;49.90;;;;;;4945957;28;20419;-57
2023/07/22 00:06:51;;;;;;;7.65;5.00;;;18.40;49.80;;;;;;4947471;28;20051;-59
2023/07/22 00:09:20;;;;;;;7.38;5.28;;;18.40;49.80;;;;;;4946962;28;20063;-60
2023/07/22 00:11:47;;;;;;;9.40;5.60;;;18.40;49.80;;;;;;4946413;28;20393;-61
2023/07/22 00:14:14;;;;;;;7.22;4.70;;;18.40;49.80;;;;;;4947031;28;20055;-61
2023/07/22 00:16:42;;;;;;;5.53;4.60;;;18.30;49.70;;;;;;4945825;28;20050;-62
2023/07/22 00:19:09;;;;;;;7.20;5.15;;;18.30;49.70;;;;;;4946515;28;20063;-62
2023/07/22 00:21:37;;;;;;;8.07;5.47;;;18.30;49.60;;;;;;4944864;28;20062;-61
2023/07/22 00:24:05;;;;;;;6.88;4.80;;;18.30;49.50;;;;;;4946611;28;20078;-62
2023/07/22 00:26:33;;;;;;;7.22;5.30;;;18.30;49.50;;;;;;4946350;28;20047;-61
2023/07/22 00:29:00;;;;;;;8.15;4.95;;;18.20;49.40;;;;;;4946810;28;20059;-63
2023/07/22 00:31:28;;;;;;;6.30;4.72;;;18.20;49.40;;;;;;4945717;28;20419;-62
2023/07/22 00:33:55;;;;;;;8.50;4.75;;;18.20;49.40;;;;;;4946151;28;20059;-62
2023/07/22 00:36:22;;;;;;;6.22;4.85;;;18.20;49.40;;;;;;4946641;28;20074;-62
2023/07/22 00:38:49;;;;;;;6.90;4.90;;;18.20;49.40;;;;;;4946451;28;20059;-62
2023/07/22 00:41:17;;;;;;;7.88;5.13;;;18.20;49.40;;;;;;4945598;28;20054;-62
2023/07/22 00:43:45;;;;;;;6.93;4.88;;;18.20;49.40;;;;;;4947045;28;20417;-63
2023/07/22 00:46:13;;;;;;;9.73;5.53;;;18.10;49.30;;;;;;4947338;28;20051;-62
2023/07/22 00:48:40;;;;;;;7.93;5.03;;;18.10;49.30;;;;;;4946349;28;20424;-62
2023/07/22 00:51:07;;;;;;;7.85;5.47;;;18.10;49.30;;;;;;4946089;28;20503;-62
2023/07/22 00:53:35;;;;;;;6.60;4.68;;;18.10;49.40;;;;;;4946306;28;20059;-62
2023/07/22 00:56:02;;;;;;;8.48;5.22;;;18.10;49.50;;;;;;4946813;28;20052;-62
2023/07/22 00:58:29;;;;;;;8.90;5.78;;;18.10;49.50;;;;;;4946382;28;20054;-61
2023/07/22 01:00:58;;;;;;;7.47;4.95;;;18.00;49.50;;;;;;4945252;28;20055;-48
2023/07/22 01:03:26;;;;;;;6.57;4.40;;;18.00;49.60;;;;;;4970123;23;20043;-46
2023/07/22 01:05:54;;;;;;;6.72;4.85;;;18.00;49.60;;;;;;4947032;28;20490;-49
2023/07/22 01:08:22;;;;;;;6.00;4.80;;;18.00;49.70;;;;;;4947581;28;20431;-49
2023/07/22 01:10:49;;;;;;;7.28;5.28;;;18.00;49.70;;;;;;4946632;28;20055;-51
2023/07/22 01:13:16;;;;;;;7.03;4.97;;;18.00;49.70;;;;;;4947422;28;20059;-44
2023/07/22 01:15:44;;;;;;;7.45;5.03;;;17.90;49.70;;;;;;4946131;28;20062;-46
2023/07/22 01:18:12;;;;;;;8.57;5.57;;;17.90;49.80;;;;;;4946297;28;20081;-51
2023/07/22 01:20:40;;;;;;;6.88;4.75;;;17.90;49.80;;;;;;4947047;28;20052;-49
2023/07/22 01:23:09;;;;;;;6.82;4.70;;;17.90;49.80;;;;;;4946076;28;20155;-47
2023/07/22 01:25:36;;;;;;;7.10;5.00;;;17.90;49.90;;;;;;4945934;28;20106;-50
2023/07/22 01:28:03;;;;;;;10.48;4.82;;;17.90;50.00;;;;;;4946696;28;20051;-49
2023/07/22 01:30:31;;;;;;;6.93;4.88;;;17.80;49.90;;;;;;4945503;28;20065;-50
2023/07/22 01:32:58;;;;;;;6.60;5.10;;;17.90;50.00;;;;;;4946522;28;20090;-53
2023/07/22 01:35:26;;;;;;;7.30;5.00;;;17.80;50.10;;;;;;4946882;28;20055;-50
2023/07/22 01:37:53;;;;;;;6.55;4.75;;;17.80;50.10;;;;;;4948357;28;20062;-51
2023/07/22 01:40:23;;;;;;;7.32;5.07;;;17.80;50.10;;;;;;4946606;28;20070;-49
2023/07/22 01:42:50;;;;;;;9.75;5.05;;;17.80;50.20;;;;;;4945574;28;20066;-47
2023/07/22 01:45:17;;;;;;;7.75;5.30;;;17.70;50.20;;;;;;4946405;28;20542;-47
2023/07/22 01:47:45;;;;;;;8.25;4.78;;;17.70;50.20;;;;;;4946144;28;20503;-50
2023/07/22 01:50:12;;;;;;;7.82;5.38;;;17.70;50.20;;;;;;4947278;28;20059;-50
2023/07/22 01:52:40;;;;;;;7.07;4.88;;;17.70;50.20;;;;;;4945691;28;20058;-46
2023/07/22 01:55:10;;;;;;;7.05;5.13;;;17.70;50.20;;;;;;4947018;28;20051;-47
2023/07/22 01:57:40;;;;;;;8.65;5.13;;;17.70;50.20;;;;;;4945731;28;20055;-47
2023/07/22 02:00:10;;;;;;;6.85;5.10;;;17.70;50.20;;;;;;4944463;28;20058;-45
2023/07/22 02:02:38;;;;;;;7.47;5.20;;;17.60;50.20;;;;;;4944188;28;20055;-49
2023/07/22 02:05:06;;;;;;;7.75;4.63;;;17.60;50.20;;;;;;4945822;28;20419;-48
2023/07/22 02:07:33;;;;;;;7.78;5.03;;;17.60;50.20;;;;;;4947032;28;20055;-50
2023/07/22 02:10:00;;;;;;;7.25;5.50;;;17.60;50.20;;;;;;4946331;28;20546;-51
2023/07/22 02:12:28;;;;;;;9.07;5.30;;;17.60;50.20;;;;;;4946682;28;20051;-50
2023/07/22 02:14:56;;;;;;;7.75;5.20;;;17.50;50.20;;;;;;4946783;28;20066;-50
2023/07/22 02:17:24;;;;;;;6.53;4.97;;;17.50;50.20;;;;;;4943233;28;20078;-50
2023/07/22 02:19:51;;;;;;;8.48;5.38;;;17.50;50.20;;;;;;4946068;28;20062;-48
2023/07/22 02:22:18;;;;;;;6.47;4.70;;;17.50;50.30;;;;;;4945301;28;20059;-53
2023/07/22 02:24:46;;;;;;;7.25;5.00;;;17.50;50.30;;;;;;4945480;28;20051;-52
2023/07/22 02:27:13;;;;;;;7.63;4.85;;;17.50;50.30;;;;;;4945015;28;20434;-49
2023/07/22 02:29:40;;;;;;;7.95;5.03;;;17.50;50.40;;;;;;4945589;28;20499;-46
2023/07/22 02:32:09;;;;;;;7.88;5.30;;;17.50;50.40;;;;;;4945006;28;20051;-52
2023/07/22 02:34:37;;;;;;;7.13;4.80;;;17.40;50.30;;;;;;4946497;28;20392;-47
2023/07/22 02:37:05;;;;;;;8.52;5.43;;;17.50;50.40;;;;;;4946116;28;20082;-47
2023/07/22 02:39:32;;;;;;;7.70;5.00;;;17.40;50.40;;;;;;4944320;28;20058;-49
2023/07/22 02:41:59;;;;;;;7.65;5.18;;;17.40;50.50;;;;;;4946079;28;20074;-48
2023/07/22 02:44:27;;;;;;;7.15;5.05;;;17.40;50.60;;;;;;4945272;28;20063;-49
2023/07/22 02:46:54;;;;;;;5.75;4.75;;;17.50;50.70;;;;;;4945083;28;20063;-52
2023/07/22 02:49:22;;;;;;;6.32;5.25;;;17.40;50.60;;;;;;4945640;28;20074;-51
2023/07/22 02:51:50;;;;;;;7.78;4.85;;;17.40;50.60;;;;;;4945567;28;20059;-46
2023/07/22 02:54:17;;;;;;;7.20;5.45;;;17.40;50.60;;;;;;4945086;28;20054;-49
2023/07/22 02:56:44;;;;;;;6.82;5.03;;;17.40;50.60;;;;;;4944341;28;20528;-48
2023/07/22 02:59:11;;;;;;;6.90;4.82;;;17.30;51.10;;;;;;4945976;28;20091;-48
2023/07/22 03:01:39;;;;;;;5.95;4.70;;;17.30;50.60;;;;;;4945126;28;20537;-51
2023/07/22 03:04:06;;;;;;;6.32;4.88;;;17.30;50.70;;;;;;4945464;28;20427;-51
2023/07/22 03:06:35;;;;;;;7.30;5.35;;;17.30;50.70;;;;;;4945268;28;20536;-49
2023/07/22 03:09:04;;;;;;;9.27;4.90;;;17.30;50.70;;;;;;4944580;28;20055;-47
2023/07/22 03:11:31;;;;;;;6.90;4.63;;;17.20;50.80;;;;;;4945740;28;20059;-50
2023/07/22 03:13:59;;;;;;;7.75;4.70;;;17.20;50.90;;;;;;4947308;28;20058;-45
2023/07/22 03:16:27;;;;;;;7.95;4.72;;;17.20;50.90;;;;;;4944698;28;20059;-47
2023/07/22 03:18:54;;;;;;;7.32;5.47;;;17.10;50.90;;;;;;4945939;28;20059;-51
2023/07/22 03:21:21;;;;;;;7.50;4.75;;;17.10;50.90;;;;;;4945309;28;20054;-51
2023/07/22 03:23:50;;;;;;;8.20;5.28;;;17.10;50.90;;;;;;4944702;28;20416;-50
2023/07/22 03:26:17;;;;;;;6.32;5.00;;;17.10;51.00;;;;;;4943226;28;20071;-50
2023/07/22 03:28:45;;;;;;;6.95;4.82;;;17.00;51.00;;;;;;4947258;28;20055;-52
2023/07/22 03:31:12;;;;;;;8.63;5.57;;;17.00;51.00;;;;;;4948303;28;20511;-51
2023/07/22 03:33:41;;;;;;;8.20;5.05;;;17.00;51.10;;;;;;4949307;28;20066;-48
2023/07/22 03:36:08;;;;;;;8.05;5.25;;;17.00;51.20;;;;;;4949144;28;20059;-53
2023/07/22 03:38:35;;;;;;;9.00;5.80;;;16.90;51.20;;;;;;4948300;28;20086;-51
2023/07/22 03:41:04;;;;;;;5.45;4.25;;;16.90;51.30;;;;;;4948518;28;20048;-49
2023/07/22 03:43:31;;;;;;;7.45;5.10;;;16.90;51.30;;;;;;4948909;28;20055;-53
2023/07/22 03:45:58;;;;;;;7.20;4.65;;;16.90;51.40;;;;;;4947306;28;20519;-52
2023/07/22 03:48:25;;;;;;;8.57;5.35;;;16.90;51.50;;;;;;4948769;28;20503;-47
2023/07/22 03:50:53;;;;;;;6.68;5.28;;;16.80;51.40;;;;;;4948341;28;20051;-44
2023/07/22 03:53:20;;;;;;;6.53;4.63;;;16.90;51.50;;;;;;4949001;28;20048;-44
2023/07/22 03:55:47;;;;;;;7.57;4.53;;;16.80;51.50;;;;;;4947857;28;20051;-46
2023/07/22 03:58:16;;;;;;;7.15;5.03;;;16.80;51.60;;;;;;4949108;28;20083;-48
2023/07/22 04:00:43;;;;;;;14.68;9.13;;;16.80;51.60;;;;;;4946782;28;20059;-51
2023/07/22 04:03:10;;;;;;;9.10;6.32;;;16.70;51.60;;;;;;4946783;28;20047;-50
2023/07/22 04:05:37;;;;;;;6.55;4.95;;;16.70;51.60;;;;;;4948978;28;20131;-51
2023/07/22 04:08:05;;;;;;;7.68;5.30;;;16.80;51.70;;;;;;4948253;28;20054;-49
2023/07/22 04:10:32;;;;;;;7.20;4.78;;;16.70;51.60;;;;;;4947976;28;20058;-52
2023/07/22 04:12:59;;;;;;;6.57;4.72;;;16.70;51.60;;;;;;4948671;28;20051;-48
2023/07/22 04:15:28;;;;;;;6.95;5.20;;;16.70;51.70;;;;;;4949719;28;20062;-51
2023/07/22 04:17:55;;;;;;;6.22;4.65;;;16.70;51.70;;;;;;4947593;28;20495;-47
2023/07/22 04:20:24;;;;;;;6.28;4.60;;;16.60;51.70;;;;;;4947921;28;20062;-52
2023/07/22 04:22:51;;;;;;;6.57;5.05;;;16.60;51.70;;;;;;4947353;28;20055;-49
2023/07/22 04:25:18;;;;;;;7.47;5.05;;;16.60;51.70;;;;;;4949388;28;20055;-50
2023/07/22 04:27:45;;;;;;;7.65;5.20;;;16.60;51.80;;;;;;4948630;28;20495;-38
2023/07/22 04:30:19;;;;;;;5.95;4.82;;;16.60;51.80;;;;;;4948546;28;20059;-41
2023/07/22 04:32:49;;;;;;;7.00;5.20;;;16.50;51.90;;;;;;4947425;28;20542;-39
2023/07/22 04:35:17;;;;;;;15.68;8.90;;;16.50;51.90;;;;;;4948171;28;20059;-39
2023/07/22 04:37:44;;;;;;;9.60;5.72;;;16.60;52.00;;;;;;4948284;28;20062;-43
2023/07/22 04:40:14;;;;;;;7.55;5.20;;;16.50;52.00;;;;;;4947128;28;20058;-39
2023/07/22 04:42:41;;;;;;;7.45;5.20;;;16.50;52.10;;;;;;4947735;28;20057;-39
2023/07/22 04:45:10;;;;;;;7.60;4.80;;;16.50;52.20;;;;;;4946801;28;20051;-39
2023/07/22 04:47:38;;;;;;;6.60;4.55;;;16.50;52.20;;;;;;4947405;28;20058;-44
2023/07/22 04:50:09;;;;;;;6.05;4.40;;;16.50;52.30;;;;;;4947907;28;20069;-41
2023/07/22 04:52:37;;;;;;;8.63;4.28;;;16.50;52.40;;;;;;4948288;28;20503;-40
2023/07/22 04:55:08;;;;;;;5.65;4.40;;;16.50;52.40;;;;;;4947683;28;20056;-40
2023/07/22 04:57:36;;;;;;;6.18;4.65;;;16.40;52.40;;;;;;4947955;28;20420;-41
2023/07/22 05:00:04;;;;;;;6.55;4.45;;;16.40;52.50;;;;;;4946399;28;20086;-41
2023/07/22 05:02:32;;;;;;;5.95;4.18;;;16.50;52.70;;;;;;4946325;28;20055;-40
2023/07/22 05:04:59;;;;;;;6.57;4.80;;;16.50;52.80;;;;;;4948072;28;20055;-45
2023/07/22 05:07:27;;;;;;;7.90;4.72;;;16.50;53.00;;;;;;4948015;28;20410;-39
2023/07/22 05:09:55;;;;;;;7.35;5.00;;;16.50;53.10;;;;;;4947830;28;20055;-40
2023/07/22 05:12:22;;;;;;;7.53;5.18;;;16.50;53.30;;;;;;4946579;28;20506;-40
2023/07/22 05:14:49;;;;;;;7.45;5.07;;;16.50;53.30;;;;;;4947200;28;20484;-41
2023/07/22 05:17:16;;;;;;;5.80;4.30;;;16.60;53.40;;;;;;4946269;28;20487;-38
2023/07/22 05:19:44;;;;;;;6.65;4.43;;;16.60;53.40;;;;;;4946530;28;20069;-38
2023/07/22 05:22:12;;;;;;;4.90;4.20;;;16.60;53.40;;;;;;4947971;28;20059;-40
2023/07/22 05:24:40;;;;;;;6.03;4.40;;;16.60;53.40;;;;;;4949790;28;20061;-39
2023/07/22 05:27:07;;;;;;;6.10;4.30;;;16.70;53.50;;;;;;4947001;28;20062;-38
2023/07/22 05:29:35;;;;;;;6.93;4.15;;;16.60;53.40;;;;;;4947997;28;20051;-41
2023/07/22 05:32:02;;;;;;;5.97;4.43;;;16.70;53.50;;;;;;4945691;28;20043;-41
2023/07/22 05:34:29;;;;;;;5.85;4.38;;;16.70;53.60;;;;;;4945721;28;20058;-46
2023/07/22 05:36:56;;;;;;;8.00;4.72;;;16.70;53.60;;;;;;4947649;28;20418;-40
2023/07/22 05:39:23;;;;;;;6.55;4.25;;;16.80;53.70;;;;;;4946687;28;20079;-54
2023/07/22 05:41:52;;;;;;;5.80;3.95;;;16.80;53.80;;;;;;4947380;28;20380;-51
2023/07/22 05:44:19;;;;;;;7.22;5.15;;;16.90;53.90;;;;;;4945954;28;20062;-50
2023/07/22 05:46:47;;;;;;;5.63;3.75;;;16.90;53.90;;;;;;4945016;28;20051;-50
2023/07/22 05:49:14;;;;;;;6.57;4.63;;;16.90;53.90;;;;;;4948078;28;20066;-52
2023/07/22 05:51:41;;;;;;;7.35;4.85;;;16.90;54.10;;;;;;4945036;28;20054;-46
2023/07/22 05:54:08;;;;;;;6.15;4.10;;;17.00;54.30;;;;;;4945395;28;20488;-47
2023/07/22 05:56:36;;;;;;;5.30;4.15;;;17.00;54.30;;;;;;4946422;28;20047;-50
2023/07/22 05:59:04;;;;;;;5.78;4.22;;;17.10;54.40;;;;;;4945890;28;20416;-50
2023/07/22 06:01:32;;;;;;;6.22;4.72;;;17.10;54.60;;;;;;4943696;28;20055;-50
2023/07/22 06:03:59;;;;;;;9.38;4.82;;;17.10;54.60;;;;;;4945695;28;20070;-45
2023/07/22 06:06:28;;;;;;;7.38;4.60;;;17.10;54.70;;;;;;4946286;28;20055;-47
2023/07/22 06:08:55;;;;;;;5.05;3.85;;;17.20;54.90;;;;;;4944440;28;20051;-48
2023/07/22 06:11:22;;;;;;;4.65;3.80;;;17.20;54.90;;;;;;4947242;28;20050;-50
2023/07/22 06:13:50;;;;;;;4.60;3.50;;;17.30;55.00;;;;;;4945456;28;20055;-50
2023/07/22 06:16:18;;;;;;;7.00;4.57;;;17.40;55.00;;;;;;4945249;28;20051;-49
2023/07/22 06:18:45;;;;;;;6.20;4.05;;;17.40;55.10;;;;;;4945641;28;20055;-50
2023/07/22 06:21:13;;;;;;;7.25;4.60;;;17.50;55.20;;;;;;4946621;28;20404;-49
2023/07/22 06:23:40;;;;;;;5.80;4.47;;;17.50;55.20;;;;;;4945436;28;20400;-45
2023/07/22 06:26:07;;;;;;;8.73;5.03;;;17.60;55.30;;;;;;4945878;28;20059;-49
2023/07/22 06:28:35;;;;;;;6.03;4.60;;;17.70;55.40;;;;;;4945977;28;20058;-46
2023/07/22 06:31:02;;;;;;;6.93;4.55;;;17.70;55.40;;;;;;4945723;28;20061;-48
2023/07/22 06:33:31;;;;;;;6.38;4.35;;;17.80;55.50;;;;;;4941394;28;20081;-48
2023/07/22 06:36:00;;;;;;;6.20;4.47;;;17.80;55.50;;;;;;4945686;28;20055;-49
2023/07/22 06:38:27;;;;;;;6.68;4.85;;;17.90;55.60;;;;;;4947910;28;20410;-50
2023/07/22 06:40:54;;;;;;;5.50;4.18;;;17.90;55.70;;;;;;4946191;28;20140;-50
2023/07/22 06:43:21;;;;;;;6.10;4.40;;;18.00;55.70;;;;;;4946719;28;20051;-45
2023/07/22 06:45:50;;;;;;;7.07;4.82;;;18.10;55.80;;;;;;4944867;28;20058;-48
2023/07/22 06:48:18;;;;;;;7.30;4.65;;;18.20;55.80;;;;;;4947608;28;20059;-45
2023/07/22 06:50:49;;;;;;;6.60;4.57;;;18.30;55.80;;;;;;4944543;28;20061;-41
2023/07/22 06:53:17;;;;;;;6.43;4.18;;;18.30;56.10;;;;;;4946664;28;20062;-39
2023/07/22 06:55:50;;;;;;;5.20;3.83;;;18.30;55.90;;;;;;4946478;28;20589;-40
2023/07/22 06:58:17;;;;;;;7.37;4.27;;;18.50;56.00;;;;;;4947666;28;20422;-42
2023/07/22 07:00:48;;;;;;;5.50;4.18;;;18.50;55.80;;;;;;4944564;28;20066;-42
2023/07/22 07:06:13;;;;;;;5.53;4.18;;;18.60;55.80;;;;;;5118167;23;20742;-48
2023/07/22 07:08:40;;;;;;;6.35;4.50;;;18.70;55.70;;;;;;4968135;28;20496;-52
2023/07/22 07:11:07;;;;;;;6.82;4.28;;;18.80;55.70;;;;;;4967653;28;20050;-54
2023/07/22 07:13:35;;;;;;;5.38;3.50;;;18.80;55.70;;;;;;4968390;28;20057;-55
2023/07/22 07:16:24;;;;;;;5.13;4.05;;;18.90;55.70;;;;;;4966647;28;20051;-55
2023/07/22 07:18:52;;;;;;;4.05;3.63;;;19.00;55.70;;;;;;4967271;28;20506;-55
2023/07/22 07:21:21;;;;;;;6.38;4.13;;;19.00;55.30;;;;;;4966136;28;20065;-49
2023/07/22 07:23:51;;;;;;;5.10;3.72;;;19.10;54.70;;;;;;4967042;28;20518;-51
2023/07/22 07:26:18;;;;;;;7.38;4.00;;;19.10;54.90;;;;;;4968387;28;20062;-56
2023/07/22 07:28:47;;;;;;;5.93;4.28;;;19.20;54.00;;;;;;4966337;28;20055;-56
2023/07/22 07:31:14;;;;;;;5.78;4.47;;;19.30;53.20;;;;;;4966070;28;20054;-55
2023/07/22 07:33:41;;;;;;;5.82;4.20;;;19.30;52.50;;;;;;4966801;28;20066;-56
2023/07/22 07:36:11;;;;;;;4.90;4.20;;;19.30;51.90;;;;;;4967863;28;20528;-56
2023/07/22 07:38:39;;;;;;;5.32;4.22;;;19.40;51.50;;;;;;4968007;28;20054;-48
2023/07/22 07:41:11;;;;;;;6.15;4.75;;;19.40;51.00;;;;;;4967514;28;20050;-55
2023/07/22 07:43:38;;;;;;;6.35;4.68;;;19.50;50.80;;;;;;4966862;28;20422;-45
2023/07/22 07:46:21;;;;;;;10.85;4.93;;;19.50;50.80;;;;;;4967450;28;20062;-55
2023/07/22 07:48:50;;;;;;;10.50;5.05;;;19.60;50.00;;;;;;4967583;28;20058;-50
2023/07/22 07:51:21;;;;;;;8.90;5.35;;;19.70;50.10;;;;;;4965716;28;20066;-45
2023/07/22 07:53:50;;;;;;;8.85;5.63;;;19.70;49.90;;;;;;4965700;28;20518;-57
2023/07/22 07:56:19;;;;;;;8.30;5.38;;;19.70;49.40;;;;;;4965880;28;20353;-57
2023/07/22 07:58:48;;;;;;;5.82;4.45;;;19.80;49.30;;;;;;4966614;28;20058;-54
2023/07/22 08:01:15;;;;;;;6.28;4.93;;;19.90;49.40;;;;;;4964623;28;20070;-48
2023/07/22 08:03:46;;;;;;;7.10;5.07;;;19.90;49.00;;;;;;4966250;28;20051;-58
2023/07/22 08:06:14;;;;;;;10.02;5.25;;;20.00;48.80;;;;;;4964036;28;20063;-52
2023/07/22 08:08:41;;;;;;;9.13;5.80;;;20.00;49.30;;;;;;4964916;28;20422;-55
2023/07/22 08:11:13;;;;;;;8.75;4.63;;;20.10;48.70;;;;;;4965950;28;20054;-56
2023/07/22 08:13:41;;;;;;;6.80;5.07;;;20.20;48.60;;;;;;4967868;28;20066;-57
2023/07/22 08:16:10;;;;;;;7.75;5.28;;;20.20;48.50;;;;;;4962578;28;20054;-56
2023/07/22 08:18:38;;;;;;;6.70;5.05;;;20.30;48.40;;;;;;4966585;28;20059;-49
2023/07/22 08:21:07;;;;;;;7.68;5.05;;;20.30;48.40;;;;;;4966485;28;20055;-55
2023/07/22 08:23:37;;;;;;;7.10;5.10;;;20.40;48.40;;;;;;4966254;28;20055;-57
2023/07/22 08:26:05;;;;;;;7.72;5.40;;;20.50;48.10;;;;;;4965667;28;20058;-51
2023/07/22 08:28:34;;;;;;;6.07;5.00;;;20.50;48.00;;;;;;4966101;28;20081;-54
2023/07/22 08:31:01;;;;;;;8.82;5.35;;;20.60;47.90;;;;;;4963193;28;20414;-46
2023/07/22 08:33:28;;;;;;;10.15;5.15;;;20.60;47.50;;;;;;4965551;28;20061;-57
2023/07/22 08:35:56;;;;;;;8.50;5.20;;;20.70;47.50;;;;;;4965140;28;20054;-57
2023/07/22 08:38:23;;;;;;;6.70;5.13;;;20.80;47.40;;;;;;4966845;28;20063;-50
2023/07/22 08:40:51;;;;;;;11.02;5.32;;;20.80;47.40;;;;;;4967323;28;20061;-56
2023/07/22 08:43:22;;;;;;;4.93;4.05;;;20.90;47.40;;;;;;4965841;28;20362;-53
2023/07/22 08:45:53;;;;;;;6.25;4.70;;;21.00;47.40;;;;;;4964153;28;20053;-53
2023/07/22 08:48:25;;;;;;;6.57;4.68;;;21.00;47.20;;;;;;4966077;28;20051;-56
2023/07/22 08:50:55;;;;;;;6.57;4.57;;;21.10;47.00;;;;;;4965789;28;20050;-54
2023/07/22 08:53:25;;;;;;;6.07;4.28;;;21.20;47.00;;;;;;4963864;28;20427;-54
2023/07/22 08:55:53;;;;;;;6.65;4.30;;;21.20;47.20;;;;;;4964324;28;20050;-51
2023/07/22 08:58:20;;;;;;;9.50;5.10;;;21.30;47.20;;;;;;4966295;28;20059;-52
2023/07/22 09:00:50;;;;;;;5.90;3.97;;;21.30;46.80;;;;;;4965409;28;20058;-57
2023/07/22 09:03:19;;;;;;;5.32;3.78;;;21.40;46.60;;;;;;4965945;28;20059;-57
2023/07/22 09:05:47;;;;;;;5.85;3.92;;;21.50;46.50;;;;;;4964991;28;20055;-47
2023/07/22 09:08:14;;;;;;;5.82;4.03;;;21.60;46.40;;;;;;4966032;28;20077;-56
2023/07/22 09:10:43;;;;;;;5.05;3.75;;;21.60;45.90;;;;;;4964682;28;20431;-54
2023/07/22 09:13:11;;;;;;;5.28;4.13;;;21.70;45.90;;;;;;4965000;28;20058;-48
2023/07/22 09:15:40;;;;;;;7.35;3.55;;;21.70;45.90;;;;;;4964960;28;20588;-52
2023/07/22 09:18:08;;;;;;;6.60;4.40;;;21.80;46.00;;;;;;4963889;28;20065;-58
2023/07/22 09:20:36;;;;;;;6.03;3.88;;;21.90;46.10;;;;;;4965714;28;20054;-57
2023/07/22 09:23:03;;;;;;;4.78;4.15;;;21.90;45.80;;;;;;4965644;28;20763;-52
2023/07/22 09:25:31;;;;;;;6.15;3.45;;;22.00;45.50;;;;;;4965073;28;20517;-54
2023/07/22 09:28:00;;;;;;;4.40;3.45;;;22.10;45.20;;;;;;4965336;28;20055;-57
2023/07/22 09:30:31;;;;;;;5.43;3.63;;;22.10;45.10;;;;;;4964449;28;20077;-54
2023/07/22 09:33:00;;;;;;;6.03;3.67;;;22.20;45.20;;;;;;4964991;28;20055;-57
2023/07/22 09:35:33;;;;;;;8.32;3.95;;;22.20;44.80;;;;;;4966584;28;20043;-58
2023/07/22 09:38:02;;;;;;;3.65;3.35;;;22.30;44.30;;;;;;4965064;28;20058;-54
2023/07/22 09:40:29;;;;;;;4.70;3.75;;;22.30;44.40;;;;;;4965387;28;20509;-58
2023/07/22 09:43:01;;;;;;;4.95;3.40;;;22.40;44.30;;;;;;4964008;28;20410;-56
2023/07/22 09:45:31;;;;;;;5.10;3.42;;;22.40;44.00;;;;;;4964166;28;20434;-52
2023/07/22 09:47:59;;;;;;;3.88;3.38;;;22.40;43.80;;;;;;4966121;28;20058;-55
2023/07/22 09:50:32;;;;;;;6.43;3.50;;;22.50;43.50;;;;;;4964840;28;20058;-57
2023/07/22 09:53:01;;;;;;;5.03;3.53;;;22.50;42.90;;;;;;4964803;28;20050;-57
2023/07/22 09:55:29;;;;;;;4.00;3.60;;;22.50;43.30;;;;;;4963006;28;20419;-54
2023/07/22 09:57:58;;;;;;;5.07;3.58;;;22.50;43.40;;;;;;4965298;28;20051;-57
2023/07/22 10:00:29;;;;;;;4.60;3.35;;;22.60;43.40;;;;;;4962064;28;20057;-47
2023/07/22 10:02:58;;;;;;;4.50;3.42;;;22.60;42.70;;;;;;4962849;28;20058;-52
2023/07/22 10:05:29;;;;;;;5.30;3.85;;;22.60;42.20;;;;;;4964725;28;20506;-52
2023/07/22 10:07:58;;;;;;;5.03;3.60;;;22.60;41.80;;;;;;4964600;28;20065;-56
2023/07/22 10:10:31;;;;;;;4.65;3.38;;;22.60;41.30;;;;;;4964685;28;20054;-57
2023/07/22 10:12:59;;;;;;;4.88;3.50;;;22.70;41.80;;;;;;4964506;28;20067;-56
2023/07/22 10:15:29;;;;;;;7.93;3.97;;;22.70;41.30;;;;;;4964702;28;20647;-55
2023/07/22 10:17:57;;;;;;;5.43;3.83;;;22.70;41.20;;;;;;4964167;28;20054;-57
2023/07/22 10:20:25;;;;;;;4.35;3.22;;;22.80;41.90;;;;;;4965096;28;20054;-50
2023/07/22 10:22:54;;;;;;;3.75;2.70;;;22.80;42.60;;;;;;4964035;28;20513;-57
2023/07/22 10:25:22;;;;;;;5.30;2.35;;;22.90;42.40;;;;;;4964586;28;20054;-56
2023/07/22 10:27:51;;;;;;;3.83;2.70;;;23.00;41.90;;;;;;4963658;28;20061;-57
2023/07/22 10:30:19;;;;;;;3.17;2.55;;;23.00;41.10;;;;;;4961947;28;20065;-55
2023/07/22 10:32:48;;;;;;;3.95;2.45;;;23.10;41.40;;;;;;4964905;28;20073;-50
2023/07/22 10:35:23;;;;;;;3.53;2.40;;;23.10;41.30;;;;;;4966094;28;20054;-58
2023/07/22 10:37:50;;;;;;;7.47;2.78;;;23.20;41.00;;;;;;4963413;28;20062;-54
2023/07/22 10:40:26;;;;;;;2.65;2.38;;;23.20;41.00;;;;;;4964573;28;20411;-52
2023/07/22 10:42:55;;;;;;;6.47;2.50;;;23.30;40.40;;;;;;4964760;28;20406;-57
2023/07/22 10:45:30;;;;;;;3.83;3.17;;;23.30;40.50;;;;;;4960590;28;20070;-58
2023/07/22 10:48:08;;;;;;;5.05;3.10;;;23.30;40.40;;;;;;4963995;28;20361;-53
2023/07/22 10:50:43;;;;;;;4.60;3.03;;;23.40;39.20;;;;;;4962786;28;20051;-51
2023/07/22 10:53:12;;;;;;;3.72;2.85;;;23.50;37.70;;;;;;4964419;28;20059;-51
2023/07/22 10:56:06;;;;;;;8.98;3.28;;;23.40;38.10;;;;;;4963574;28;20502;-53
2023/07/22 10:58:34;;;;;;;5.38;3.53;;;23.50;36.80;;;;;;4962510;28;20057;-54
2023/07/22 11:01:24;;;;;;;4.20;3.00;;;23.50;36.80;;;;;;4964086;28;20823;-47
2023/07/22 11:04:30;;;;;;;4.25;3.45;;;23.50;37.50;;;;;;4962816;28;20058;-54
2023/07/22 11:06:59;;;;;;;3.92;2.83;;;23.60;37.70;;;;;;4929570;28;20746;-52
2023/07/22 11:09:41;;;;;;;4.45;2.40;;;23.60;38.50;;;;;;4965807;28;20058;-58
2023/07/22 11:12:14;;;;;;;2.85;2.58;;;23.70;38.30;;;;;;4964202;28;20065;-57
2023/07/22 11:14:48;;;;;;;3.08;2.30;;;23.70;38.80;;;;;;4964019;28;20054;-58
2023/07/22 11:17:15;;;;;;;;;;;23.80;38.30;;;;;;4962317;28;20402;-51
2023/07/22 11:19:43;;;;;;;2.30;1.73;;;23.80;39.10;;;;;;4963793;28;19922;-47
2023/07/22 11:22:13;;;;;;;1.95;1.75;;;23.90;37.60;;;;;;4964828;28;20061;-52
2023/07/22 11:24:40;;;;;;;1.70;1.60;;;23.90;37.50;;;;;;4963017;28;20057;-54
2023/07/22 11:27:10;;;;;;;2.05;1.85;;;24.00;37.20;;;;;;4963773;28;20051;-57
2023/07/22 11:29:37;;;;;;;2.80;1.60;;;24.00;37.20;;;;;;4963717;28;20050;-51
2023/07/22 11:32:05;;;;;;;2.58;1.60;;;24.00;37.40;;;;;;4960179;28;20055;-53
2023/07/22 11:34:33;;;;;;;2.47;1.88;;;24.00;37.00;;;;;;4963250;28;20057;-56
2023/07/22 11:37:01;;;;;;;1.95;1.50;;;24.00;36.70;;;;;;4963462;28;20058;-58
2023/07/22 11:39:31;;;;;;;3.35;1.75;;;24.10;36.50;;;;;;4965783;28;20063;-58
2023/07/22 11:42:02;;;;;;;2.45;1.83;;;24.10;36.20;;;;;;4964848;28;20065;-57
2023/07/22 11:44:32;;;;;;;3.53;1.90;;;24.10;35.80;;;;;;4965108;28;20063;-55
2023/07/22 11:47:03;;;;;;;2.10;1.70;;;24.10;35.80;;;;;;4961568;28;20058;-52
2023/07/22 11:49:32;;;;;;;2.20;1.63;;;24.10;35.70;;;;;;4966274;28;20059;-47
2023/07/22 11:52:01;;;;;;;2.08;1.70;;;24.20;35.20;;;;;;4966777;28;20515;-55
2023/07/22 11:54:29;;;;;;;2.15;1.58;;;24.20;35.60;;;;;;4966767;28;20054;-57
2023/07/22 11:56:57;;;;;;;1.73;1.60;;;24.10;35.60;;;;;;4966416;28;20054;-57
2023/07/22 11:59:37;;;;;;;2.55;2.08;;;24.20;35.60;;;;;;4968589;28;20058;-57
2023/07/22 12:02:06;;;;;;;2.53;1.92;;;24.20;35.20;;;;;;4966293;28;20050;-55
2023/07/22 12:04:34;;;;;;;2.20;1.88;;;24.20;35.30;;;;;;4966676;28;20062;-55
2023/07/22 12:07:01;;;;;;;5.07;1.92;;;24.20;34.80;;;;;;4966802;28;20054;-46
2023/07/22 12:09:29;;;;;;;1.92;1.73;;;24.20;34.40;;;;;;4966890;28;20055;-54
2023/07/22 12:11:59;;;;;;;3.05;2.42;;;24.20;34.50;;;;;;4966977;28;20059;-58
2023/07/22 12:14:35;;;;;;;2.67;2.00;;;24.20;34.90;;;;;;4967372;28;20078;-55
2023/07/22 12:17:03;;;;;;;2.47;2.28;;;24.20;34.90;;;;;;4965049;28;20050;-58
2023/07/22 12:19:30;;;;;;;2.42;2.00;;;24.20;35.20;;;;;;4967388;28;20507;-57
2023/07/22 12:21:58;;;;;;;2.33;2.13;;;24.20;35.00;;;;;;4966533;28;20050;-54
2023/07/22 12:24:25;;;;;;;3.08;2.20;;;24.30;35.00;;;;;;4966872;28;20059;-55
2023/07/22 12:26:54;;;;;;;6.10;4.32;;;24.20;35.00;;;;;;4966692;28;20066;-55
2023/07/22 12:29:22;;;;;;;17.85;11.43;;;24.30;34.70;;;;;;4967117;28;20059;-55
2023/07/22 12:31:50;;;;;;;5.28;4.00;;;24.20;34.60;;;;;;4966171;28;20051;-57
2023/07/22 12:34:17;;;;;;;3.03;2.20;;;24.20;34.90;;;;;;4966488;28;20059;-55
2023/07/22 12:36:45;;;;;;;4.13;2.47;;;24.20;34.50;;;;;;4966751;28;20055;-56
2023/07/22 12:39:12;;;;;;;3.83;2.10;;;24.30;34.90;;;;;;4964873;28;20125;-57
2023/07/22 12:41:39;;;;;;;11.38;2.65;;;24.30;34.70;;;;;;4966472;28;20070;-57
2023/07/22 12:44:06;;;;;;;4.55;2.40;;;24.30;35.10;;;;;;4963909;28;20059;-56
2023/07/22 12:46:34;;;;;;;3.17;2.50;;;24.30;34.50;;;;;;4964949;28;20062;-57
2023/07/22 12:49:05;;;;;;;3.67;2.50;;;24.30;34.30;;;;;;4965505;28;20490;-52
2023/07/22 12:51:33;;;;;;;2.90;2.22;;;24.40;34.40;;;;;;4965589;28;20426;-57
2023/07/22 12:54:00;;;;;;;2.40;2.13;;;24.40;34.90;;;;;;4966519;28;20063;-50
2023/07/22 12:56:28;;;;;;;2.97;2.40;;;24.50;33.80;;;;;;4966268;28;20499;-55